createdAt,value
2022-10-22T00:00:37.548Z,3.33
2022-10-22T00:03:04.706Z,3.40
2022-10-22T00:05:31.861Z,3.50
2022-10-22T00:07:58.974Z,3.40
2022-10-22T00:10:28.278Z,3.75
2022-10-22T00:12:55.445Z,3.95
2022-10-22T00:15:22.666Z,3.60
2022-10-22T00:17:49.840Z,3.80
2022-10-22T00:20:17.026Z,4.10
2022-10-22T00:22:44.184Z,3.72
2022-10-22T00:25:11.347Z,3.60
2022-10-22T00:27:38.770Z,3.67
2022-10-22T00:30:06.698Z,3.58
2022-10-22T00:32:33.920Z,4.00
2022-10-22T00:35:01.051Z,3.40
2022-10-22T00:37:28.210Z,3.33
2022-10-22T00:39:55.375Z,3.65
2022-10-22T00:42:25.745Z,3.65
2022-10-22T00:45:07.841Z,3.35
2022-10-22T00:47:47.928Z,3.80
2022-10-22T00:50:20.358Z,3.00
2022-10-22T00:52:48.013Z,3.28
2022-10-22T00:55:15.554Z,3.38
2022-10-22T00:57:43.431Z,3.43
2022-10-22T01:00:11.287Z,3.00
2022-10-22T01:02:38.972Z,2.97
2022-10-22T01:05:07.029Z,3.40
2022-10-22T01:07:39.430Z,3.10
2022-10-22T01:10:27.803Z,3.10
2022-10-22T01:13:11.310Z,3.40
2022-10-22T01:16:03.010Z,2.90
2022-10-22T01:18:39.121Z,3.20
2022-10-22T01:21:51.628Z,2.97
2022-10-22T01:24:33.064Z,2.87
2022-10-22T01:27:09.001Z,2.60
2022-10-22T01:29:53.167Z,2.92
2022-10-22T01:32:26.088Z,3.10
2022-10-22T01:34:58.602Z,2.90
2022-10-22T01:37:32.763Z,2.67
2022-10-22T01:40:01.550Z,2.90
2022-10-22T01:42:28.754Z,2.50
2022-10-22T01:44:55.929Z,2.80
2022-10-22T01:47:40.901Z,2.78
2022-10-22T01:50:26.215Z,2.90
2022-10-22T01:52:56.068Z,3.00
2022-10-22T01:55:51.249Z,2.63
2022-10-22T01:58:33.438Z,2.70
2022-10-22T02:01:11.472Z,2.50
2022-10-22T02:03:51.251Z,2.08
2022-10-22T02:06:22.672Z,2.63
2022-10-22T02:08:50.927Z,2.75
2022-10-22T02:11:18.742Z,2.80
2022-10-22T02:13:51.146Z,2.20
2022-10-22T02:16:38.544Z,2.85
2022-10-22T02:19:25.814Z,2.80
2022-10-22T02:21:54.113Z,2.75
2022-10-22T02:24:22.577Z,2.80
2022-10-22T02:26:59.040Z,2.60
2022-10-22T02:29:30.610Z,2.78
2022-10-22T02:32:00.198Z,2.55
2022-10-22T02:34:31.442Z,2.28
2022-10-22T02:37:01.259Z,2.38
2022-10-22T02:39:29.587Z,2.27
2022-10-22T02:41:59.731Z,2.30
2022-10-22T02:44:26.859Z,2.30
2022-10-22T02:46:54.044Z,2.40
2022-10-22T02:49:21.189Z,2.22
2022-10-22T02:51:48.671Z,2.05
2022-10-22T02:54:15.921Z,2.30
2022-10-22T02:56:43.159Z,2.60
2022-10-22T02:59:10.347Z,2.35
2022-10-22T03:01:37.518Z,2.72
2022-10-22T03:04:05.569Z,2.90
2022-10-22T03:06:32.716Z,2.90
2022-10-22T03:08:59.898Z,2.83
2022-10-22T03:11:27.075Z,3.03
2022-10-22T03:13:54.234Z,2.80
2022-10-22T03:16:21.371Z,3.00
2022-10-22T03:18:48.466Z,2.50
2022-10-22T03:21:24.608Z,2.40
2022-10-22T03:23:52.312Z,2.87
2022-10-22T03:26:19.501Z,2.60
2022-10-22T03:28:48.313Z,2.70
2022-10-22T03:31:15.493Z,2.70
2022-10-22T03:33:42.651Z,2.85
2022-10-22T03:36:10.114Z,3.15
2022-10-22T03:38:39.927Z,2.90
2022-10-22T03:41:07.534Z,2.80
2022-10-22T03:43:35.983Z,3.20
2022-10-22T03:46:03.194Z,2.60
2022-10-22T03:48:30.486Z,2.92
2022-10-22T03:50:57.647Z,3.03
2022-10-22T03:53:25.016Z,2.97
2022-10-22T03:55:52.196Z,3.20
2022-10-22T03:58:19.346Z,2.90
2022-10-22T04:00:46.529Z,2.70
2022-10-22T04:03:13.716Z,3.13
2022-10-22T04:05:40.856Z,2.80
2022-10-22T04:08:08.050Z,3.08
2022-10-22T04:10:35.488Z,3.17
2022-10-22T04:13:02.591Z,2.80
2022-10-22T04:15:29.735Z,3.10
2022-10-22T04:17:56.900Z,2.95
2022-10-22T04:20:24.110Z,2.90
2022-10-22T04:22:51.274Z,3.10
2022-10-22T04:25:18.403Z,3.13
2022-10-22T04:27:45.519Z,3.30
2022-10-22T04:30:13.381Z,3.10
2022-10-22T04:32:40.493Z,3.08
2022-10-22T04:35:07.968Z,2.75
2022-10-22T04:37:35.258Z,3.17
2022-10-22T04:40:02.658Z,3.03
2022-10-22T04:42:29.853Z,3.20
2022-10-22T04:44:57.039Z,3.08
2022-10-22T04:47:24.230Z,2.90
2022-10-22T04:49:51.343Z,2.90
2022-10-22T04:52:18.485Z,3.17
2022-10-22T04:54:45.619Z,2.97
2022-10-22T04:57:14.347Z,3.25
2022-10-22T04:59:44.012Z,3.10
2022-10-22T05:02:11.195Z,2.78
2022-10-22T05:04:38.314Z,3.20
2022-10-22T05:07:05.463Z,3.17
2022-10-22T05:09:32.609Z,2.97
2022-10-22T05:11:59.763Z,3.00
2022-10-22T05:14:27.311Z,2.97
2022-10-22T05:16:54.749Z,3.00
2022-10-22T05:19:27.857Z,3.13
2022-10-22T05:21:57.453Z,2.70
2022-10-22T05:24:25.764Z,3.15
2022-10-22T05:26:54.235Z,2.88
2022-10-22T05:29:22.110Z,3.00
2022-10-22T05:31:49.378Z,2.90
2022-10-22T05:34:16.924Z,3.03
2022-10-22T05:36:44.214Z,3.10
2022-10-22T05:39:11.885Z,2.78
2022-10-22T05:41:39.054Z,3.03
2022-10-22T05:44:06.388Z,2.90
2022-10-22T05:46:35.203Z,2.60
2022-10-22T05:49:04.804Z,3.17
2022-10-22T05:51:34.669Z,3.08
2022-10-22T05:54:04.513Z,3.03
2022-10-22T05:56:32.759Z,3.33
2022-10-22T05:59:00.506Z,3.17
2022-10-22T06:01:33.051Z,3.08
2022-10-22T06:04:03.473Z,3.10
2022-10-22T06:06:34.873Z,3.17
2022-10-22T06:09:24.533Z,3.30
2022-10-22T06:11:52.472Z,3.35
2022-10-22T06:14:20.406Z,3.05
2022-10-22T06:16:48.056Z,3.20
2022-10-22T06:19:17.961Z,3.15
2022-10-22T06:21:45.135Z,2.70
2022-10-22T06:24:13.300Z,3.22
2022-10-22T06:26:41.118Z,2.80
2022-10-22T06:29:08.652Z,2.88
2022-10-22T06:31:38.655Z,2.90
2022-10-22T06:34:08.182Z,2.90
2022-10-22T06:36:35.421Z,2.80
2022-10-22T06:39:03.146Z,2.88
2022-10-22T06:41:30.275Z,2.70
2022-10-22T06:43:58.003Z,2.73
2022-10-22T06:46:26.010Z,2.60
2022-10-22T06:48:56.014Z,3.30
2022-10-22T06:51:23.666Z,2.65
2022-10-22T06:53:51.061Z,3.00
2022-10-22T06:56:20.613Z,3.00
2022-10-22T06:58:49.339Z,2.55
2022-10-22T07:01:18.185Z,3.20
2022-10-22T07:03:45.990Z,2.90
2022-10-22T07:06:14.610Z,2.70
2022-10-22T07:08:42.547Z,2.35
2022-10-22T07:11:18.259Z,2.77
2022-10-22T07:13:46.355Z,3.03
2022-10-22T07:16:14.695Z,2.40
2022-10-22T07:18:43.968Z,2.20
2022-10-22T07:21:15.510Z,2.70
2022-10-22T07:23:42.810Z,2.92
2022-10-22T07:26:12.092Z,2.88
2022-10-22T07:28:40.955Z,2.80
2022-10-22T07:31:09.926Z,2.90
2022-10-22T07:33:38.279Z,3.00
2022-10-22T07:36:08.924Z,3.20
2022-10-22T07:38:36.782Z,2.80
2022-10-22T07:41:04.681Z,2.72
2022-10-22T07:43:32.214Z,2.90
2022-10-22T07:46:00.303Z,2.85
2022-10-22T07:48:27.462Z,3.10
2022-10-22T07:50:54.919Z,2.80
2022-10-22T07:53:22.358Z,3.38
2022-10-22T07:55:50.401Z,2.70
2022-10-22T07:58:19.270Z,2.60
2022-10-22T08:00:46.720Z,2.92
2022-10-22T08:03:15.729Z,2.80
2022-10-22T08:05:45.908Z,2.80
2022-10-22T08:08:14.757Z,2.70
2022-10-22T08:10:42.610Z,3.17
2022-10-22T08:13:09.734Z,2.90
2022-10-22T08:15:36.945Z,2.83
2022-10-22T08:18:04.227Z,2.88
2022-10-22T08:20:31.430Z,2.80
2022-10-22T08:22:59.365Z,2.80
2022-10-22T08:25:27.236Z,2.20
2022-10-22T08:27:54.371Z,2.67
2022-10-22T08:30:21.492Z,3.03
2022-10-22T08:32:51.608Z,2.77
2022-10-22T08:35:21.854Z,2.70
2022-10-22T08:37:48.969Z,2.83
2022-10-22T08:40:32.663Z,2.70
2022-10-22T08:43:11.417Z,3.10
2022-10-22T08:46:07.341Z,2.78
2022-10-22T08:48:49.433Z,2.40
2022-10-22T08:51:26.042Z,2.60
2022-10-22T08:54:02.242Z,2.92
2022-10-22T08:56:30.725Z,3.22
2022-10-22T08:59:23.162Z,2.70
2022-10-22T09:01:53.662Z,2.80
2022-10-22T09:04:29.983Z,2.75
2022-10-22T09:07:00.318Z,2.80
2022-10-22T09:09:33.065Z,2.60
2022-10-22T09:12:01.136Z,2.57
2022-10-22T09:14:29.859Z,2.40
2022-10-22T09:17:05.419Z,2.47
2022-10-22T09:19:48.048Z,2.70
2022-10-22T09:22:30.580Z,2.35
2022-10-22T09:25:16.350Z,2.20
2022-10-22T09:27:43.960Z,2.60
2022-10-22T09:30:20.291Z,2.28
2022-10-22T09:33:10.546Z,2.33
2022-10-22T09:35:58.618Z,2.13
2022-10-22T09:38:29.524Z,2.53
2022-10-22T09:40:58.883Z,2.30
2022-10-22T09:43:26.052Z,2.20
2022-10-22T09:45:59.004Z,2.58
2022-10-22T09:48:39.476Z,2.33
2022-10-22T09:51:56.010Z,2.73
2022-10-22T09:54:24.706Z,2.60
2022-10-22T09:57:24.498Z,2.35
2022-10-22T09:59:53.936Z,2.13
2022-10-22T10:02:43.740Z,2.10
2022-10-22T10:05:20.202Z,2.07
2022-10-22T10:07:48.048Z,1.90
2022-10-22T10:10:28.218Z,2.28
2022-10-22T10:13:17.731Z,2.00
2022-10-22T10:15:54.360Z,2.13
2022-10-22T10:18:53.723Z,2.10
2022-10-22T10:21:54.570Z,1.80
2022-10-22T10:24:56.618Z,1.90
2022-10-22T10:27:44.201Z,1.60
2022-10-22T10:30:20.570Z,1.95
2022-10-22T10:33:02.750Z,1.80
2022-10-22T10:36:09.862Z,2.10
2022-10-22T10:39:23.894Z,2.40
2022-10-22T10:42:21.163Z,1.70
2022-10-22T10:44:56.847Z,2.53
2022-10-22T10:47:43.434Z,2.40
2022-10-22T10:50:50.168Z,1.90
2022-10-22T10:53:33.566Z,2.28
2022-10-22T10:56:39.184Z,2.45
2022-10-22T10:59:27.582Z,2.15
2022-10-22T11:02:09.692Z,2.30
2022-10-22T11:05:20.501Z,2.25
2022-10-22T11:08:01.684Z,1.92
2022-10-22T11:10:52.563Z,1.90
2022-10-22T11:13:30.723Z,1.77
2022-10-22T11:16:00.918Z,1.73
2022-10-22T11:18:39.254Z,1.80
2022-10-22T11:21:29.390Z,1.63
2022-10-22T11:24:15.327Z,1.50
2022-10-22T11:26:56.219Z,1.50
2022-10-22T11:29:29.454Z,1.50
2022-10-22T11:32:00.225Z,2.00
2022-10-22T11:34:42.191Z,2.10
2022-10-22T11:37:13.449Z,1.60
2022-10-22T11:39:43.076Z,1.58
2022-10-22T11:42:18.307Z,2.15
2022-10-22T11:45:02.500Z,2.00
2022-10-22T11:47:41.750Z,1.80
2022-10-22T11:50:21.519Z,1.90
2022-10-22T11:53:07.798Z,2.17
2022-10-22T11:55:48.114Z,1.98
2022-10-22T11:58:44.575Z,2.20
2022-10-22T12:01:11.644Z,2.15
2022-10-22T12:03:50.761Z,2.13
2022-10-22T12:06:21.652Z,2.05
2022-10-22T12:08:48.773Z,2.03
2022-10-22T12:11:24.374Z,2.20
2022-10-22T12:14:26.447Z,2.30
2022-10-22T12:17:05.729Z,1.90
2022-10-22T12:19:39.818Z,2.33
2022-10-22T12:22:10.032Z,2.45
2022-10-22T12:24:40.625Z,2.30
2022-10-22T12:27:27.252Z,2.50
2022-10-22T12:29:59.651Z,2.15
2022-10-22T12:32:45.119Z,2.15
2022-10-22T12:35:17.818Z,1.90
2022-10-22T12:37:45.172Z,2.10
2022-10-22T12:40:27.435Z,2.33
2022-10-22T12:42:57.006Z,1.95
2022-10-22T12:45:30.674Z,2.05
2022-10-22T12:48:00.814Z,2.35
2022-10-22T12:50:42.249Z,2.75
2022-10-22T12:53:20.705Z,2.00
2022-10-22T12:55:50.945Z,1.93
2022-10-22T12:58:21.561Z,2.50
2022-10-22T13:00:57.285Z,2.35
2022-10-22T13:03:29.222Z,2.38
2022-10-22T13:05:56.394Z,2.13
2022-10-22T13:08:28.793Z,2.50
2022-10-22T13:10:56.030Z,2.50
2022-10-22T13:13:49.607Z,2.95
2022-10-22T13:16:24.308Z,2.13
2022-10-22T13:18:53.019Z,2.70
2022-10-22T13:21:22.997Z,2.38
2022-10-22T13:24:02.166Z,2.50
2022-10-22T13:26:35.139Z,2.10
2022-10-22T13:29:09.315Z,2.50
2022-10-22T13:31:38.091Z,2.30
2022-10-22T13:34:11.689Z,2.50
2022-10-22T13:36:40.106Z,2.13
2022-10-22T13:39:12.509Z,1.80
2022-10-22T13:44:12.490Z,2.08
2022-10-22T13:46:42.653Z,2.27
2022-10-22T13:49:16.530Z,2.33
2022-10-22T13:51:44.242Z,2.40
2022-10-22T13:54:17.883Z,2.50
2022-10-22T13:56:45.546Z,2.40
2022-10-22T13:59:13.149Z,2.00
2022-10-22T14:01:40.626Z,2.10
2022-10-22T14:04:12.051Z,2.10
2022-10-22T14:06:39.260Z,2.20
2022-10-22T14:09:11.827Z,2.20
2022-10-22T14:11:38.985Z,1.83
2022-10-22T14:14:08.980Z,2.13
2022-10-22T14:16:37.464Z,2.40
2022-10-22T14:19:07.133Z,2.17
2022-10-22T14:21:37.194Z,2.30
2022-10-22T14:24:07.067Z,2.33
2022-10-22T14:26:36.675Z,1.95
2022-10-22T14:29:09.347Z,2.10
2022-10-22T14:31:42.436Z,2.20
2022-10-22T14:34:12.174Z,2.30
2022-10-22T14:36:39.338Z,2.10
2022-10-22T14:39:06.545Z,2.00
2022-10-22T14:41:33.802Z,2.17
2022-10-22T14:44:01.658Z,2.40
2022-10-22T14:46:28.952Z,2.45
2022-10-22T14:48:56.067Z,2.20
2022-10-22T14:51:23.218Z,2.03
2022-10-22T14:53:50.492Z,2.47
2022-10-22T14:56:21.235Z,2.30
2022-10-22T14:58:48.913Z,2.00
2022-10-22T15:01:16.550Z,2.30
2022-10-22T15:03:43.707Z,2.30
2022-10-22T15:06:10.923Z,2.17
2022-10-22T15:08:38.159Z,2.28
2022-10-22T15:11:08.477Z,2.22
2022-10-22T15:13:35.701Z,2.30
2022-10-22T15:16:07.343Z,2.50
2022-10-22T15:18:34.959Z,2.03
2022-10-22T15:21:08.790Z,2.10
2022-10-22T15:23:39.053Z,1.80
2022-10-22T15:26:11.105Z,2.20
2022-10-22T15:28:39.764Z,2.05
2022-10-22T15:31:07.403Z,2.20
2022-10-22T15:33:34.584Z,2.58
2022-10-22T15:36:16.114Z,2.33
2022-10-22T15:38:43.252Z,2.58
2022-10-22T15:41:12.481Z,2.20
2022-10-22T15:43:39.620Z,2.60
2022-10-22T15:46:10.010Z,2.47
2022-10-22T15:48:37.138Z,2.35
2022-10-22T15:51:18.775Z,2.38
2022-10-22T15:53:57.037Z,2.35
2022-10-22T15:56:26.663Z,2.78
2022-10-22T15:59:06.631Z,2.80
2022-10-22T16:01:35.167Z,2.92
2022-10-22T16:04:02.995Z,2.40
2022-10-22T16:06:34.488Z,2.42
2022-10-22T16:09:05.201Z,2.50
2022-10-22T16:11:33.406Z,2.27
2022-10-22T16:14:01.198Z,2.30
2022-10-22T16:16:30.758Z,2.60
2022-10-22T16:18:57.931Z,2.58
2022-10-22T16:21:25.776Z,2.45
2022-10-22T16:23:52.959Z,2.70
2022-10-22T16:26:20.825Z,2.67
2022-10-22T16:28:48.558Z,2.38
2022-10-22T16:31:18.048Z,2.37
2022-10-22T16:33:47.936Z,2.67
2022-10-22T16:36:19.995Z,2.60
2022-10-22T16:38:48.341Z,2.85
2022-10-22T16:41:15.497Z,2.85
2022-10-22T16:43:44.508Z,3.30
2022-10-22T16:46:11.930Z,3.00
2022-10-22T16:48:41.906Z,3.00
2022-10-22T16:51:12.337Z,3.17
2022-10-22T16:53:39.629Z,3.50
2022-10-22T16:56:14.827Z,3.20
2022-10-22T16:58:47.681Z,3.20
2022-10-22T17:01:18.973Z,3.28
2022-10-22T17:03:46.800Z,3.30
2022-10-22T17:06:14.575Z,6.33
2022-10-22T17:08:42.478Z,7.07
2022-10-22T17:11:17.377Z,4.20
2022-10-22T17:13:49.518Z,3.50
2022-10-22T17:16:19.348Z,3.45
2022-10-22T17:18:47.139Z,3.77
2022-10-22T17:21:15.310Z,3.45
2022-10-22T17:23:42.731Z,3.53
2022-10-22T17:26:17.061Z,3.60
2022-10-22T17:28:44.576Z,3.90
2022-10-22T17:31:20.443Z,3.45
2022-10-22T17:33:48.627Z,3.92
2022-10-22T17:36:16.949Z,4.07
2022-10-22T17:38:47.633Z,3.60
2022-10-22T17:41:20.930Z,4.50
2022-10-22T17:43:48.327Z,5.18
2022-10-22T17:46:20.794Z,4.20
2022-10-22T17:48:52.483Z,4.43
2022-10-22T17:51:21.613Z,5.50
2022-10-22T17:53:51.804Z,4.33
2022-10-22T17:56:21.890Z,4.00
2022-10-22T17:58:49.339Z,3.72
2022-10-22T18:01:31.182Z,3.35
2022-10-22T18:04:03.646Z,3.30
2022-10-22T18:06:31.918Z,4.18
2022-10-22T18:08:59.183Z,3.60
2022-10-22T18:11:27.851Z,3.05
2022-10-22T18:13:56.939Z,3.53
2022-10-22T18:16:25.427Z,3.42
2022-10-22T18:18:55.123Z,3.55
2022-10-22T18:21:24.414Z,5.00
2022-10-22T18:23:51.632Z,4.97
2022-10-22T18:26:21.566Z,4.70
2022-10-22T18:28:51.699Z,4.53
2022-10-22T18:31:21.667Z,3.40
2022-10-22T18:33:49.740Z,4.13
2022-10-22T18:36:19.355Z,4.10
2022-10-22T18:38:54.982Z,4.63
2022-10-22T18:41:22.708Z,3.88
2022-10-22T18:43:55.199Z,5.03
2022-10-22T18:46:23.905Z,4.60
2022-10-22T18:48:54.955Z,4.65
2022-10-22T18:51:23.915Z,4.80
2022-10-22T18:54:04.726Z,4.68
2022-10-22T18:56:40.611Z,4.87
2022-10-22T18:59:20.639Z,4.85
2022-10-22T19:01:48.262Z,4.75
2022-10-22T19:04:15.575Z,5.15
2022-10-22T19:06:45.328Z,5.40
2022-10-22T19:09:16.772Z,5.50
2022-10-22T19:11:45.425Z,5.28
2022-10-22T19:14:14.840Z,5.75
2022-10-22T19:16:42.069Z,5.38
2022-10-22T19:19:09.191Z,5.90
2022-10-22T19:21:38.129Z,5.70
2022-10-22T19:24:05.794Z,5.13
2022-10-22T19:26:32.978Z,5.90
2022-10-22T19:29:01.117Z,5.07
2022-10-22T19:31:29.972Z,5.72
2022-10-22T19:33:58.481Z,5.33
2022-10-22T19:36:30.000Z,5.60
2022-10-22T19:38:57.947Z,5.68
2022-10-22T19:41:27.774Z,5.93
2022-10-22T19:43:56.353Z,7.10
2022-10-22T19:46:25.572Z,7.85
2022-10-22T19:48:54.107Z,8.07
2022-10-22T19:51:23.474Z,7.65
2022-10-22T19:53:56.255Z,7.20
2022-10-22T19:56:23.402Z,7.38
2022-10-22T19:58:50.627Z,7.93
2022-10-22T20:01:19.228Z,7.82
2022-10-22T20:03:46.975Z,7.10
2022-10-22T20:06:16.159Z,7.70
2022-10-22T20:08:44.347Z,9.02
2022-10-22T20:11:26.602Z,10.98
2022-10-22T20:13:54.057Z,8.13
2022-10-22T20:16:24.183Z,8.27
2022-10-22T20:18:52.139Z,10.38
2022-10-22T20:21:20.202Z,7.80
2022-10-22T20:23:51.071Z,7.00
2022-10-22T20:26:18.504Z,6.78
2022-10-22T20:28:45.621Z,6.55
2022-10-22T20:31:15.789Z,6.40
2022-10-22T20:33:42.986Z,6.05
2022-10-22T20:36:15.674Z,6.38
2022-10-22T20:38:43.166Z,6.45
2022-10-22T20:41:12.225Z,7.03
2022-10-22T20:43:39.610Z,7.28
2022-10-22T20:46:06.777Z,7.20
2022-10-22T20:48:34.476Z,6.13
2022-10-22T20:51:01.787Z,6.30
2022-10-22T20:53:28.982Z,6.57
2022-10-22T20:55:58.911Z,6.63
2022-10-22T20:58:27.459Z,7.10
2022-10-22T21:00:55.267Z,7.40
2022-10-22T21:03:23.011Z,7.30
2022-10-22T21:05:50.383Z,6.60
2022-10-22T21:08:17.662Z,7.10
2022-10-22T21:10:46.340Z,7.40
2022-10-22T21:13:14.968Z,8.93
2022-10-22T21:15:42.217Z,8.07
2022-10-22T21:18:09.397Z,8.48
2022-10-22T21:20:39.344Z,8.17
2022-10-22T21:23:06.877Z,8.48
2022-10-22T21:25:38.350Z,9.70
2022-10-22T21:28:07.723Z,7.90
2022-10-22T21:30:34.859Z,7.57
2022-10-22T21:33:01.991Z,7.70
2022-10-22T21:35:29.416Z,7.30
2022-10-22T21:37:56.572Z,7.53
2022-10-22T21:40:23.703Z,8.23
2022-10-22T21:42:51.036Z,8.35
2022-10-22T21:45:22.107Z,8.57
2022-10-22T21:47:49.744Z,7.75
2022-10-22T21:50:17.020Z,8.20
2022-10-22T21:52:44.278Z,8.10
2022-10-22T21:55:11.405Z,8.15
2022-10-22T21:57:38.722Z,7.75
2022-10-22T22:00:07.683Z,7.97
2022-10-22T22:02:34.861Z,8.52
2022-10-22T22:05:01.988Z,7.97
2022-10-22T22:07:29.171Z,7.90
2022-10-22T22:09:58.866Z,8.27
2022-10-22T22:12:26.003Z,8.15
2022-10-22T22:14:53.147Z,8.27
2022-10-22T22:17:20.303Z,8.70
2022-10-22T22:19:47.406Z,8.30
2022-10-22T22:22:14.642Z,8.50
2022-10-22T22:24:41.799Z,8.65
2022-10-22T22:27:08.940Z,8.50
2022-10-22T22:29:36.079Z,8.55
2022-10-22T22:32:03.213Z,8.90
2022-10-22T22:34:30.406Z,8.80
2022-10-22T22:36:57.656Z,8.65
2022-10-22T22:39:24.938Z,8.88
2022-10-22T22:41:52.232Z,8.82
2022-10-22T22:44:19.488Z,8.43
2022-10-22T22:46:46.760Z,9.23
2022-10-22T22:49:14.265Z,9.13
2022-10-22T22:51:41.503Z,9.02
2022-10-22T22:54:09.799Z,8.43
2022-10-22T22:56:37.254Z,8.80
2022-10-22T22:59:05.588Z,8.90
2022-10-22T23:01:35.500Z,9.00
2022-10-22T23:04:11.366Z,9.15
2022-10-22T23:06:38.925Z,8.60
2022-10-22T23:09:07.709Z,8.73
2022-10-22T23:11:35.493Z,8.88
2022-10-22T23:14:04.670Z,9.15
2022-10-22T23:16:35.016Z,9.18
2022-10-22T23:19:03.454Z,8.60
2022-10-22T23:21:36.042Z,9.43
2022-10-22T23:24:10.962Z,9.00
2022-10-22T23:26:41.328Z,8.60
2022-10-22T23:29:12.260Z,8.80
2022-10-22T23:31:41.418Z,8.90
2022-10-22T23:34:09.937Z,9.00
2022-10-22T23:36:38.454Z,8.95
2022-10-22T23:39:10.495Z,9.10
2022-10-22T23:41:38.097Z,9.32
2022-10-22T23:44:06.017Z,9.30
2022-10-22T23:46:33.435Z,9.10
2022-10-22T23:49:01.554Z,8.88
2022-10-22T23:51:28.911Z,8.52
2022-10-22T23:53:58.921Z,8.50
2022-10-22T23:56:26.974Z,9.00
2022-10-22T23:58:54.312Z,9.20
